createdAt,value
2023-09-06T00:01:11.018Z,17.41
2023-09-06T00:21:10.987Z,17.10
2023-09-06T00:41:10.993Z,17.03
2023-09-06T01:01:10.938Z,17.08
2023-09-06T01:21:10.908Z,16.73
2023-09-06T01:41:10.881Z,16.79
2023-09-06T02:01:10.861Z,16.34
2023-09-06T02:21:10.814Z,16.39
2023-09-06T02:41:10.791Z,16.51
2023-09-06T03:01:10.765Z,16.33
2023-09-06T03:21:10.743Z,16.29
2023-09-06T03:41:10.716Z,16.11
2023-09-06T04:01:10.674Z,15.96
2023-09-06T04:21:10.788Z,15.85
2023-09-06T04:41:10.627Z,15.95
2023-09-06T05:01:10.606Z,15.69
2023-09-06T05:21:10.581Z,15.74
2023-09-06T05:41:10.554Z,15.69
2023-09-06T06:01:10.592Z,15.74
2023-09-06T06:21:10.565Z,16.03
2023-09-06T06:41:10.482Z,16.35
2023-09-06T07:01:10.433Z,16.73
2023-09-06T07:21:10.419Z,17.25
2023-09-06T07:41:10.386Z,17.80
2023-09-06T08:01:10.364Z,18.35
2023-09-06T08:21:10.343Z,19.01
2023-09-06T08:41:10.310Z,19.78
2023-09-06T09:01:10.279Z,20.34
2023-09-06T09:21:10.252Z,21.01
2023-09-06T09:41:10.223Z,21.55
2023-09-06T10:01:10.272Z,22.08
2023-09-06T10:21:10.167Z,22.67
2023-09-06T10:41:10.131Z,23.03
2023-09-06T11:01:10.092Z,23.42
2023-09-06T11:21:10.060Z,23.99
2023-09-06T11:41:10.024Z,24.57
2023-09-06T12:01:10.007Z,24.99
2023-09-06T12:21:10.181Z,25.37
2023-09-06T12:41:09.920Z,25.75
2023-09-06T13:01:10.057Z,26.11
2023-09-06T13:21:09.862Z,26.12
2023-09-06T13:41:10.091Z,26.13
2023-09-06T14:01:09.807Z,25.74
2023-09-06T14:21:09.785Z,25.15
2023-09-06T14:41:09.734Z,24.71
2023-09-06T15:01:09.791Z,24.30
2023-09-06T15:21:09.728Z,23.92
2023-09-06T15:41:09.645Z,23.63
2023-09-06T16:01:09.601Z,23.33
2023-09-06T16:21:09.596Z,23.00
2023-09-06T16:41:09.559Z,22.76
2023-09-06T17:01:09.506Z,22.45
2023-09-06T17:21:09.483Z,22.13
2023-09-06T17:41:09.453Z,21.82
2023-09-06T18:01:09.420Z,21.53
2023-09-06T18:21:09.400Z,21.34
2023-09-06T18:41:09.374Z,21.08
2023-09-06T19:01:09.322Z,20.77
2023-09-06T19:21:09.313Z,20.61
2023-09-06T19:41:09.276Z,20.25
2023-09-06T20:01:09.243Z,19.96
2023-09-06T20:21:09.221Z,19.61
2023-09-06T20:41:09.193Z,19.64
2023-09-06T21:01:09.163Z,19.53
2023-09-06T21:21:09.115Z,19.14
2023-09-06T21:41:09.117Z,19.00
2023-09-06T22:01:09.054Z,18.76
2023-09-06T22:21:09.040Z,18.85
2023-09-06T22:41:09.012Z,18.76
2023-09-06T23:01:08.977Z,18.53
2023-09-06T23:21:08.940Z,18.32
2023-09-06T23:41:08.942Z,18.25
